createdAt,value
2023-02-19T00:01:42.001Z,4.93
2023-02-19T00:04:15.151Z,4.53
2023-02-19T00:06:44.147Z,5.30
2023-02-19T00:09:13.366Z,6.07
2023-02-19T00:11:45.782Z,4.50
2023-02-19T00:14:17.887Z,3.80
2023-02-19T00:16:46.439Z,5.20
2023-02-19T00:19:18.149Z,3.77
2023-02-19T00:21:46.533Z,6.00
2023-02-19T00:24:17.815Z,4.40
2023-02-19T00:26:48.250Z,4.53
2023-02-19T00:29:25.028Z,4.60
2023-02-19T00:31:53.068Z,5.37
2023-02-19T00:34:23.121Z,6.83
2023-02-19T00:36:52.984Z,4.53
2023-02-19T00:39:21.932Z,4.03
2023-02-19T00:41:55.059Z,5.17
2023-02-19T00:44:26.981Z,5.40
2023-02-19T00:46:59.680Z,4.73
2023-02-19T00:49:27.715Z,5.73
2023-02-19T00:52:00.930Z,5.00
2023-02-19T00:54:33.724Z,5.03
2023-02-19T00:57:03.182Z,4.83
2023-02-19T00:59:35.529Z,4.77
2023-02-19T01:02:06.017Z,5.30
2023-02-19T01:04:35.049Z,4.83
2023-02-19T01:07:07.065Z,5.47
2023-02-19T01:09:45.869Z,5.33
2023-02-19T01:12:17.315Z,4.87
2023-02-19T01:14:57.192Z,5.93
2023-02-19T01:17:29.963Z,6.50
2023-02-19T01:19:59.675Z,5.90
2023-02-19T01:22:27.947Z,5.30
2023-02-19T01:25:01.200Z,5.60
2023-02-19T01:27:31.235Z,5.23
2023-02-19T01:30:01.069Z,5.63
2023-02-19T01:32:32.736Z,6.07
2023-02-19T01:35:01.733Z,5.63
2023-02-19T01:37:30.382Z,6.07
2023-02-19T01:39:59.674Z,6.20
2023-02-19T01:42:29.052Z,7.37
2023-02-19T01:45:27.628Z,5.90
2023-02-19T01:48:07.634Z,6.60
2023-02-19T01:50:41.442Z,5.33
2023-02-19T01:53:13.997Z,5.43
2023-02-19T01:55:45.926Z,5.30
2023-02-19T01:58:15.848Z,7.30
2023-02-19T02:00:48.918Z,5.57
2023-02-19T02:03:17.124Z,4.53
2023-02-19T02:05:55.425Z,5.33
2023-02-19T02:08:44.739Z,5.27
2023-02-19T02:11:15.291Z,3.93
2023-02-19T02:13:43.513Z,7.13
2023-02-19T02:16:23.333Z,5.17
2023-02-19T02:19:02.400Z,5.77
2023-02-19T02:21:55.595Z,4.57
2023-02-19T02:24:49.659Z,4.53
2023-02-19T02:27:39.608Z,3.27
2023-02-19T02:30:23.096Z,4.20
2023-02-19T02:32:58.212Z,4.97
2023-02-19T02:35:33.382Z,5.10
2023-02-19T02:38:07.134Z,5.77
2023-02-19T02:40:36.089Z,4.20
2023-02-19T02:43:04.877Z,4.50
2023-02-19T02:45:40.085Z,4.30
2023-02-19T02:48:23.287Z,4.93
2023-02-19T02:50:55.155Z,4.17
2023-02-19T02:53:48.518Z,4.07
2023-02-19T02:56:20.169Z,3.87
2023-02-19T02:58:50.823Z,3.70
2023-02-19T03:01:42.681Z,4.37
2023-02-19T03:04:14.093Z,4.07
2023-02-19T03:06:56.326Z,4.40
2023-02-19T03:09:34.823Z,4.30
2023-02-19T03:12:24.310Z,3.90
2023-02-19T03:15:16.312Z,3.90
2023-02-19T03:18:11.545Z,3.53
2023-02-19T03:20:45.936Z,3.43
2023-02-19T03:23:15.961Z,5.10
2023-02-19T03:26:02.389Z,3.20
2023-02-19T03:28:48.068Z,3.70
2023-02-19T03:31:21.478Z,3.87
2023-02-19T03:34:00.507Z,4.23
2023-02-19T03:36:36.160Z,5.33
2023-02-19T03:39:11.910Z,4.17
2023-02-19T03:41:50.399Z,3.80
2023-02-19T03:44:25.262Z,3.93
2023-02-19T03:46:58.112Z,3.30
2023-02-19T03:49:34.793Z,3.93
2023-02-19T03:52:14.936Z,3.10
2023-02-19T03:54:53.707Z,3.63
2023-02-19T03:57:29.356Z,2.90
2023-02-19T04:00:04.996Z,2.60
2023-02-19T04:02:41.224Z,3.00
2023-02-19T04:05:17.229Z,3.43
2023-02-19T04:07:50.267Z,3.00
2023-02-19T04:10:20.292Z,2.80
2023-02-19T04:12:55.362Z,3.20
2023-02-19T04:15:29.144Z,2.53
2023-02-19T04:18:03.353Z,4.37
2023-02-19T04:20:40.850Z,3.77
2023-02-19T04:23:09.799Z,4.87
2023-02-19T04:25:41.076Z,3.30
2023-02-19T04:28:13.095Z,4.03
2023-02-19T04:30:43.124Z,3.23
2023-02-19T04:33:11.530Z,3.40
2023-02-19T04:35:45.045Z,2.90
2023-02-19T04:38:14.373Z,2.97
2023-02-19T04:40:43.530Z,2.40
2023-02-19T04:43:14.758Z,2.67
2023-02-19T04:45:43.015Z,2.97
2023-02-19T04:48:26.293Z,1.90
2023-02-19T04:50:56.896Z,2.20
2023-02-19T04:53:26.449Z,2.03
2023-02-19T04:55:55.903Z,1.87
2023-02-19T04:58:25.421Z,1.90
2023-02-19T05:00:54.003Z,1.30
2023-02-19T05:03:22.507Z,1.13
2023-02-19T05:05:51.287Z,1.00
2023-02-19T05:08:21.448Z,1.40
2023-02-19T05:10:49.982Z,1.33
2023-02-19T05:13:20.054Z,1.30
2023-02-19T05:16:00.090Z,2.27
2023-02-19T05:18:28.528Z,0.90
2023-02-19T05:20:58.584Z,1.20
2023-02-19T05:23:32.070Z,1.40
2023-02-19T05:26:01.450Z,1.30
2023-02-19T05:28:32.021Z,2.30
2023-02-19T05:31:06.110Z,1.80
2023-02-19T05:33:35.700Z,1.80
2023-02-19T05:36:11.307Z,1.33
2023-02-19T05:38:42.741Z,1.10
2023-02-19T05:41:16.826Z,1.40
2023-02-19T05:43:49.106Z,1.63
2023-02-19T05:46:19.871Z,1.27
2023-02-19T05:48:50.456Z,1.13
2023-02-19T05:51:21.547Z,0.90
2023-02-19T05:53:55.540Z,1.10
2023-02-19T05:56:35.297Z,0.70
2023-02-19T05:59:06.899Z,1.37
2023-02-19T06:01:37.411Z,1.33
2023-02-19T06:04:07.084Z,0.83
2023-02-19T06:06:40.012Z,1.03
2023-02-19T06:09:10.011Z,1.53
2023-02-19T06:11:39.066Z,1.10
2023-02-19T06:14:11.251Z,1.73
2023-02-19T06:16:41.491Z,1.00
2023-02-19T06:19:10.048Z,1.47
2023-02-19T06:21:41.521Z,1.00
2023-02-19T06:24:13.138Z,1.60
2023-02-19T06:26:43.782Z,2.40
2023-02-19T06:29:14.714Z,1.43
2023-02-19T06:31:47.020Z,2.40
2023-02-19T06:34:16.875Z,1.30
2023-02-19T06:36:52.667Z,1.13
2023-02-19T06:39:22.466Z,1.33
2023-02-19T06:41:54.826Z,1.03
2023-02-19T06:44:24.225Z,1.47
2023-02-19T06:47:00.547Z,1.23
2023-02-19T06:49:31.716Z,2.03
2023-02-19T06:52:02.003Z,1.20
2023-02-19T06:54:31.550Z,1.07
2023-02-19T06:56:59.483Z,2.30
2023-02-19T06:59:28.300Z,1.43
2023-02-19T07:01:59.174Z,1.77
2023-02-19T07:04:29.069Z,1.53
2023-02-19T07:06:58.336Z,2.03
2023-02-19T07:09:28.811Z,2.30
2023-02-19T07:11:58.867Z,1.40
2023-02-19T07:14:29.791Z,1.50
2023-02-19T07:16:59.717Z,2.57
2023-02-19T07:19:30.828Z,2.33
2023-02-19T07:22:01.782Z,1.77
2023-02-19T07:24:33.548Z,2.47
2023-02-19T07:27:05.198Z,2.73
2023-02-19T07:29:35.735Z,4.03
2023-02-19T07:32:08.805Z,2.33
2023-02-19T07:34:45.815Z,4.43
2023-02-19T07:37:21.293Z,2.70
2023-02-19T07:39:53.669Z,2.07
2023-02-19T07:42:26.601Z,2.47
2023-02-19T07:45:00.504Z,1.87
2023-02-19T07:47:30.807Z,2.53
2023-02-19T07:49:59.427Z,3.20
2023-02-19T07:52:28.959Z,1.50
2023-02-19T07:54:57.275Z,4.40
2023-02-19T07:57:37.761Z,4.20
2023-02-19T08:00:10.891Z,2.20
2023-02-19T08:02:57.177Z,1.40
2023-02-19T08:05:28.183Z,3.33
2023-02-19T08:07:56.556Z,4.03
2023-02-19T08:10:51.525Z,5.00
2023-02-19T08:13:23.401Z,2.23
2023-02-19T08:16:10.900Z,2.43
2023-02-19T08:18:46.717Z,3.60
2023-02-19T08:21:15.146Z,4.10
2023-02-19T08:23:43.353Z,2.30
2023-02-19T08:26:15.161Z,4.73
2023-02-19T08:28:45.204Z,3.60
2023-02-19T08:31:15.560Z,4.57
2023-02-19T08:33:43.961Z,2.60
2023-02-19T08:36:16.563Z,7.90
2023-02-19T08:38:44.529Z,2.43
2023-02-19T08:41:14.571Z,4.90
2023-02-19T08:43:49.576Z,2.80
2023-02-19T08:46:19.322Z,5.87
2023-02-19T08:48:48.170Z,3.60
2023-02-19T08:51:18.160Z,5.47
2023-02-19T08:53:48.567Z,4.97
2023-02-19T08:56:21.507Z,5.63
2023-02-19T08:58:51.087Z,3.70
2023-02-19T09:01:20.357Z,4.07
2023-02-19T09:03:48.641Z,5.87
2023-02-19T09:06:22.885Z,3.80
2023-02-19T09:08:52.188Z,4.30
2023-02-19T09:11:23.129Z,4.17
2023-02-19T09:13:52.405Z,4.40
2023-02-19T09:16:22.243Z,4.83
2023-02-19T09:18:52.414Z,3.97
2023-02-19T09:21:21.627Z,3.17
2023-02-19T09:23:50.245Z,4.90
2023-02-19T09:26:18.523Z,4.63
2023-02-19T09:28:48.728Z,5.90
2023-02-19T09:31:21.287Z,5.17
2023-02-19T09:33:50.709Z,5.00
2023-02-19T09:36:22.985Z,6.37
2023-02-19T09:38:53.912Z,5.57
2023-02-19T09:41:32.172Z,6.07
2023-02-19T09:44:02.385Z,5.67
2023-02-19T09:46:41.426Z,4.20
2023-02-19T09:49:21.437Z,3.00
2023-02-19T09:51:54.037Z,3.40
2023-02-19T09:54:24.217Z,5.80
2023-02-19T09:56:56.248Z,4.83
2023-02-19T09:59:28.986Z,5.73
2023-02-19T10:02:05.232Z,5.07
2023-02-19T10:04:35.374Z,3.53
2023-02-19T10:07:04.578Z,8.80
2023-02-19T10:09:34.200Z,5.43
2023-02-19T10:12:03.482Z,4.07
2023-02-19T10:14:38.906Z,3.67
2023-02-19T10:17:25.009Z,6.10
2023-02-19T10:19:55.138Z,4.67
2023-02-19T10:22:27.848Z,7.57
2023-02-19T10:24:58.113Z,10.57
2023-02-19T10:27:34.308Z,9.73
2023-02-19T10:30:05.200Z,5.73
2023-02-19T10:32:34.978Z,5.73
2023-02-19T10:35:14.268Z,6.40
2023-02-19T10:37:52.574Z,3.37
2023-02-19T10:40:23.987Z,5.30
2023-02-19T10:43:08.299Z,4.93
2023-02-19T10:45:48.739Z,6.07
2023-02-19T10:48:26.032Z,9.13
2023-02-19T10:51:00.575Z,7.03
2023-02-19T10:53:47.580Z,6.17
2023-02-19T10:56:17.992Z,5.43
2023-02-19T10:58:47.669Z,7.10
2023-02-19T11:01:22.218Z,10.07
2023-02-19T11:03:55.891Z,6.17
2023-02-19T11:06:28.470Z,6.97
2023-02-19T11:09:08.290Z,10.30
2023-02-19T11:11:42.933Z,6.17
2023-02-19T11:14:19.482Z,9.73
2023-02-19T11:16:52.011Z,7.07
2023-02-19T11:19:55.936Z,6.63
2023-02-19T11:22:34.438Z,6.73
2023-02-19T11:25:27.084Z,4.27
2023-02-19T11:27:58.032Z,7.77
2023-02-19T11:30:39.310Z,7.43
2023-02-19T11:33:28.155Z,5.00
2023-02-19T11:36:23.261Z,6.87
2023-02-19T11:38:53.615Z,3.93
2023-02-19T11:41:43.018Z,7.23
2023-02-19T11:44:32.418Z,6.53
2023-02-19T11:47:17.628Z,6.33
2023-02-19T11:49:57.818Z,4.37
2023-02-19T11:52:38.416Z,5.53
2023-02-19T11:55:25.889Z,4.50
2023-02-19T11:58:16.287Z,5.03
2023-02-19T12:00:57.020Z,6.13
2023-02-19T12:03:42.510Z,5.37
2023-02-19T12:06:21.166Z,5.00
2023-02-19T12:09:23.360Z,7.33
2023-02-19T12:12:05.081Z,5.97
2023-02-19T12:14:55.379Z,6.13
2023-02-19T12:17:56.596Z,6.63
2023-02-19T12:20:34.953Z,8.50
2023-02-19T12:23:36.529Z,5.53
2023-02-19T12:26:18.326Z,7.47
2023-02-19T12:29:28.387Z,5.47
2023-02-19T12:32:22.568Z,4.90
2023-02-19T12:35:19.624Z,4.77
2023-02-19T12:37:54.089Z,4.87
2023-02-19T12:40:39.402Z,6.33
2023-02-19T12:43:16.911Z,8.43
2023-02-19T12:45:50.041Z,3.77
2023-02-19T12:48:31.025Z,5.23
2023-02-19T12:51:06.647Z,5.10
2023-02-19T12:53:44.345Z,4.40
2023-02-19T12:56:18.782Z,7.30
2023-02-19T12:58:56.170Z,6.47
2023-02-19T13:01:31.447Z,7.90
2023-02-19T13:04:18.084Z,4.57
2023-02-19T13:06:53.194Z,7.77
2023-02-19T13:09:29.946Z,4.80
2023-02-19T13:12:03.856Z,7.23
2023-02-19T13:14:42.940Z,5.63
2023-02-19T13:17:26.923Z,4.87
2023-02-19T13:20:15.294Z,6.03
2023-02-19T13:23:10.296Z,5.57
2023-02-19T13:26:00.052Z,3.97
2023-02-19T13:28:45.284Z,6.73
2023-02-19T13:31:31.972Z,4.33
2023-02-19T13:34:11.931Z,4.13
2023-02-19T13:36:41.467Z,4.17
2023-02-19T13:41:54.776Z,3.63
2023-02-19T13:44:27.062Z,2.90
2023-02-19T13:46:57.183Z,4.47
2023-02-19T13:49:50.978Z,5.37
2023-02-19T13:52:41.618Z,3.30
2023-02-19T13:55:58.234Z,5.00
2023-02-19T13:58:55.333Z,4.77
2023-02-19T14:02:14.167Z,5.00
2023-02-19T14:04:51.776Z,4.57
2023-02-19T14:07:52.631Z,6.60
2023-02-19T14:10:57.981Z,5.20
2023-02-19T14:14:08.643Z,3.70
2023-02-19T14:17:22.104Z,3.10
2023-02-19T14:19:58.733Z,5.50
2023-02-19T14:23:15.904Z,4.40
2023-02-19T14:25:55.490Z,3.80
2023-02-19T14:28:31.300Z,4.13
2023-02-19T14:31:04.749Z,4.03
2023-02-19T14:33:37.974Z,6.20
2023-02-19T14:36:20.841Z,6.47
2023-02-19T14:38:54.777Z,4.07
2023-02-19T14:41:25.952Z,3.37
2023-02-19T14:43:58.002Z,2.53
2023-02-19T14:46:32.085Z,2.63
2023-02-19T14:49:07.969Z,2.70
2023-02-19T14:51:45.190Z,2.03
2023-02-19T14:54:19.259Z,1.93
2023-02-19T14:56:52.179Z,4.07
2023-02-19T14:59:28.293Z,2.37
2023-02-19T15:01:58.707Z,3.10
2023-02-19T15:04:34.378Z,1.30
2023-02-19T15:07:10.642Z,3.33
2023-02-19T15:09:53.209Z,2.70
2023-02-19T15:12:25.945Z,3.13
2023-02-19T15:15:03.367Z,2.80
2023-02-19T15:17:39.270Z,1.33
2023-02-19T15:20:14.440Z,2.73
2023-02-19T15:22:46.966Z,1.93
2023-02-19T15:25:21.197Z,2.20
2023-02-19T15:27:53.027Z,2.13
2023-02-19T15:30:24.175Z,2.37
2023-02-19T15:33:00.106Z,2.37
2023-02-19T15:35:39.052Z,2.70
2023-02-19T15:38:19.634Z,2.27
2023-02-19T15:40:52.773Z,2.43
2023-02-19T15:43:29.342Z,3.17
2023-02-19T15:46:04.684Z,1.60
2023-02-19T15:48:41.446Z,2.17
2023-02-19T15:51:18.905Z,2.80
2023-02-19T15:53:53.383Z,1.37
2023-02-19T15:56:29.888Z,1.50
2023-02-19T15:59:06.005Z,2.27
2023-02-19T16:01:40.271Z,3.40
2023-02-19T16:04:27.926Z,1.63
2023-02-19T16:07:02.139Z,1.97
2023-02-19T16:09:40.649Z,2.50
2023-02-19T16:12:23.208Z,2.27
2023-02-19T16:14:56.709Z,1.97
2023-02-19T16:17:37.513Z,1.60
2023-02-19T16:20:13.506Z,1.40
2023-02-19T16:22:46.862Z,2.30
2023-02-19T16:25:40.994Z,1.10
2023-02-19T16:28:20.723Z,2.33
2023-02-19T16:30:59.598Z,2.43
2023-02-19T16:33:42.128Z,1.57
2023-02-19T16:36:42.578Z,1.93
2023-02-19T16:39:30.276Z,1.93
2023-02-19T16:42:24.175Z,1.67
2023-02-19T16:44:52.374Z,3.33
2023-02-19T16:47:29.912Z,1.90
2023-02-19T16:50:05.053Z,2.70
2023-02-19T16:52:33.329Z,2.13
2023-02-19T16:55:04.397Z,2.33
2023-02-19T16:57:34.518Z,1.63
2023-02-19T17:00:02.811Z,2.77
2023-02-19T17:02:35.563Z,3.37
2023-02-19T17:05:05.601Z,2.33
2023-02-19T17:07:37.724Z,4.40
2023-02-19T17:10:07.268Z,2.23
2023-02-19T17:12:40.182Z,2.93
2023-02-19T17:15:10.133Z,2.40
2023-02-19T17:17:40.448Z,2.63
2023-02-19T17:20:21.348Z,2.50
2023-02-19T17:22:49.693Z,3.47
2023-02-19T17:25:18.403Z,2.37
2023-02-19T17:27:48.480Z,3.27
2023-02-19T17:30:25.446Z,2.00
2023-02-19T17:32:55.429Z,5.00
2023-02-19T17:35:23.744Z,2.37
2023-02-19T17:37:54.317Z,2.83
2023-02-19T17:40:32.774Z,2.57
2023-02-19T17:43:09.249Z,3.30
2023-02-19T17:45:37.517Z,2.27
2023-02-19T17:48:06.614Z,2.07
2023-02-19T17:50:36.247Z,3.33
2023-02-19T17:53:07.175Z,3.13
2023-02-19T17:55:36.795Z,2.43
2023-02-19T17:58:09.546Z,2.40
2023-02-19T18:00:38.377Z,3.13
2023-02-19T18:03:11.374Z,3.53
2023-02-19T18:05:42.869Z,3.13
2023-02-19T18:08:13.979Z,1.90
2023-02-19T18:10:45.648Z,3.53
2023-02-19T18:13:24.639Z,2.47
2023-02-19T18:15:59.298Z,3.77
2023-02-19T18:18:32.307Z,2.73
2023-02-19T18:21:05.921Z,2.97
2023-02-19T18:23:38.898Z,5.07
2023-02-19T18:26:10.473Z,2.77
2023-02-19T18:28:41.289Z,2.53
2023-02-19T18:31:11.565Z,4.67
2023-02-19T18:33:41.278Z,4.07
2023-02-19T18:36:13.078Z,3.00
2023-02-19T18:38:42.409Z,4.60
2023-02-19T18:41:14.430Z,4.40
2023-02-19T18:43:46.172Z,4.47
2023-02-19T18:46:17.071Z,3.83
2023-02-19T18:48:45.591Z,3.67
2023-02-19T18:51:14.212Z,4.30
2023-02-19T18:53:53.064Z,4.40
2023-02-19T18:56:23.333Z,4.60
2023-02-19T18:58:53.564Z,3.63
2023-02-19T19:01:31.566Z,3.07
2023-02-19T19:04:05.383Z,4.03
2023-02-19T19:06:36.108Z,4.60
2023-02-19T19:09:04.665Z,3.47
2023-02-19T19:11:33.111Z,3.20
2023-02-19T19:14:03.638Z,3.20
2023-02-19T19:16:32.807Z,3.97
2023-02-19T19:19:00.922Z,3.60
2023-02-19T19:21:29.520Z,4.47
2023-02-19T19:23:59.246Z,4.33
2023-02-19T19:26:27.400Z,3.87
2023-02-19T19:28:56.519Z,7.33
2023-02-19T19:31:27.353Z,3.20
2023-02-19T19:33:56.097Z,3.67
2023-02-19T19:36:25.057Z,4.93
2023-02-19T19:38:54.047Z,6.83
2023-02-19T19:41:22.819Z,5.10
2023-02-19T19:43:54.909Z,4.73
2023-02-19T19:46:24.186Z,4.20
2023-02-19T19:49:06.029Z,4.47
2023-02-19T19:51:34.682Z,5.70
2023-02-19T19:54:08.179Z,5.97
2023-02-19T19:56:42.282Z,5.20
2023-02-19T19:59:11.630Z,5.30
2023-02-19T20:01:48.565Z,4.67
2023-02-19T20:04:22.009Z,7.47
2023-02-19T20:06:52.377Z,5.63
2023-02-19T20:09:25.538Z,3.93
2023-02-19T20:11:54.767Z,4.70
2023-02-19T20:14:25.113Z,4.97
2023-02-19T20:16:55.453Z,4.53
2023-02-19T20:19:24.884Z,4.97
2023-02-19T20:21:55.440Z,4.00
2023-02-19T20:24:28.678Z,6.73
2023-02-19T20:27:01.007Z,5.33
2023-02-19T20:29:34.230Z,5.27
2023-02-19T20:32:04.606Z,4.37
2023-02-19T20:34:38.704Z,6.03
2023-02-19T20:37:09.330Z,5.07
2023-02-19T20:39:38.993Z,4.43
2023-02-19T20:42:10.934Z,4.13
2023-02-19T20:44:39.501Z,4.90
2023-02-19T20:47:09.617Z,4.47
2023-02-19T20:49:41.416Z,5.27
2023-02-19T20:52:12.378Z,5.37
2023-02-19T20:54:43.075Z,4.97
2023-02-19T20:57:13.217Z,5.83
2023-02-19T20:59:46.580Z,5.70
2023-02-19T21:02:19.699Z,9.93
2023-02-19T21:04:49.063Z,5.87
2023-02-19T21:07:20.159Z,6.23
2023-02-19T21:09:48.229Z,6.53
2023-02-19T21:12:17.180Z,4.43
2023-02-19T21:14:45.058Z,7.57
2023-02-19T21:17:14.093Z,4.90
2023-02-19T21:19:42.333Z,5.80
2023-02-19T21:22:13.574Z,4.80
2023-02-19T21:24:42.327Z,6.57
2023-02-19T21:27:10.944Z,5.13
2023-02-19T21:29:40.127Z,4.67
2023-02-19T21:32:10.643Z,4.73
2023-02-19T21:34:39.412Z,7.10
2023-02-19T21:37:10.979Z,5.00
2023-02-19T21:39:43.019Z,4.93
2023-02-19T21:42:11.414Z,4.90
2023-02-19T21:44:41.686Z,5.80
2023-02-19T21:47:13.124Z,5.00
2023-02-19T21:49:42.862Z,5.70
2023-02-19T21:52:12.094Z,7.63
2023-02-19T21:54:41.704Z,5.73
2023-02-19T21:57:10.451Z,5.83
2023-02-19T21:59:39.643Z,4.83
2023-02-19T22:02:08.639Z,4.50
2023-02-19T22:04:36.683Z,6.50
2023-02-19T22:07:05.289Z,5.60
2023-02-19T22:09:34.794Z,5.20
2023-02-19T22:12:07.799Z,7.00
2023-02-19T22:14:36.735Z,4.93
2023-02-19T22:17:07.368Z,4.93
2023-02-19T22:19:37.456Z,6.10
2023-02-19T22:22:07.068Z,4.83
2023-02-19T22:24:36.718Z,5.60
2023-02-19T22:27:07.981Z,6.40
2023-02-19T22:29:38.998Z,5.43
2023-02-19T22:32:07.300Z,5.17
2023-02-19T22:34:41.109Z,7.77
2023-02-19T22:37:09.592Z,5.43
2023-02-19T22:39:40.630Z,5.60
2023-02-19T22:42:10.541Z,6.60
2023-02-19T22:44:39.537Z,5.20
2023-02-19T22:47:07.739Z,6.87
2023-02-19T22:49:43.600Z,9.43
2023-02-19T22:52:15.768Z,5.73
2023-02-19T22:54:44.261Z,6.93
2023-02-19T22:57:14.018Z,5.63
2023-02-19T22:59:42.264Z,8.17
2023-02-19T23:02:11.484Z,6.50
2023-02-19T23:04:41.976Z,7.23
2023-02-19T23:07:11.984Z,6.30
2023-02-19T23:09:40.288Z,5.57
2023-02-19T23:12:11.885Z,5.67
2023-02-19T23:14:44.868Z,6.03
2023-02-19T23:17:15.923Z,5.30
2023-02-19T23:19:43.938Z,5.53
2023-02-19T23:22:13.571Z,10.27
2023-02-19T23:24:42.058Z,6.60
2023-02-19T23:27:14.598Z,8.03
2023-02-19T23:29:44.495Z,6.17
2023-02-19T23:32:14.001Z,6.93
2023-02-19T23:34:52.288Z,5.73
2023-02-19T23:37:21.529Z,6.37
2023-02-19T23:39:49.527Z,8.07
2023-02-19T23:42:18.441Z,5.30
2023-02-19T23:44:52.436Z,7.40
2023-02-19T23:47:22.503Z,5.00
2023-02-19T23:49:51.386Z,6.93
2023-02-19T23:52:23.882Z,6.87
2023-02-19T23:54:52.675Z,4.87
2023-02-19T23:57:20.589Z,6.93
2023-02-19T23:59:50.179Z,6.33
